createdAt,value
2018-01-20T00:01:01.222Z,5.35
2018-01-20T00:03:28.851Z,5.12
2018-01-20T00:05:56.413Z,5.55
2018-01-20T00:08:24.002Z,4.78
2018-01-20T00:11:03.528Z,5.43
2018-01-20T00:13:31.121Z,4.85
2018-01-20T00:15:58.676Z,5.65
2018-01-20T00:18:26.281Z,3.95
2018-01-20T00:20:53.843Z,4.80
2018-01-20T00:23:21.404Z,4.20
2018-01-20T00:25:54.771Z,5.20
2018-01-20T00:28:22.363Z,4.30
2018-01-20T00:30:49.919Z,4.37
2018-01-20T00:33:17.516Z,4.15
2018-01-20T00:35:45.086Z,4.35
2018-01-20T00:38:12.668Z,5.22
2018-01-20T00:40:40.321Z,4.35
2018-01-20T00:43:07.981Z,4.85
2018-01-20T00:45:35.549Z,5.32
2018-01-20T00:48:03.141Z,4.62
2018-01-20T00:50:30.708Z,5.00
2018-01-20T00:52:58.291Z,5.10
2018-01-20T00:55:25.850Z,5.85
2018-01-20T00:57:53.570Z,5.22
2018-01-20T01:00:21.145Z,4.15
2018-01-20T01:02:48.908Z,4.00
2018-01-20T01:05:17.254Z,4.78
2018-01-20T01:07:44.952Z,3.45
2018-01-20T01:10:12.546Z,3.60
2018-01-20T01:12:40.106Z,3.67
2018-01-20T01:15:07.853Z,3.47
2018-01-20T01:17:35.422Z,2.55
2018-01-20T01:20:03.018Z,2.92
2018-01-20T01:22:30.576Z,2.87
2018-01-20T01:24:58.148Z,2.70
2018-01-20T01:27:25.773Z,2.40
2018-01-20T01:29:53.305Z,2.75
2018-01-20T01:32:22.242Z,2.20
2018-01-20T01:34:49.804Z,2.47
2018-01-20T01:37:17.389Z,1.90
2018-01-20T01:39:44.980Z,2.15
2018-01-20T01:42:13.306Z,1.90
2018-01-20T01:44:41.067Z,2.00
2018-01-20T01:47:12.764Z,2.42
2018-01-20T01:49:40.401Z,2.08
2018-01-20T01:52:08.500Z,2.62
2018-01-20T01:54:36.078Z,1.70
2018-01-20T01:57:03.646Z,1.83
2018-01-20T01:59:31.196Z,1.60
2018-01-20T02:01:58.881Z,2.20
2018-01-20T02:04:26.461Z,2.17
2018-01-20T02:06:54.023Z,2.20
2018-01-20T02:09:21.619Z,1.70
2018-01-20T02:11:49.209Z,2.25
2018-01-20T02:14:16.756Z,1.90
2018-01-20T02:16:44.414Z,1.60
2018-01-20T02:19:11.988Z,1.62
2018-01-20T02:21:39.730Z,1.70
2018-01-20T02:24:07.499Z,1.52
2018-01-20T02:26:35.082Z,1.50
2018-01-20T02:29:03.396Z,1.30
2018-01-20T02:31:31.011Z,2.00
2018-01-20T02:33:58.566Z,1.62
2018-01-20T02:36:26.142Z,1.45
2018-01-20T02:38:54.003Z,1.60
2018-01-20T02:41:21.585Z,1.50
2018-01-20T02:43:49.294Z,1.20
2018-01-20T02:46:16.874Z,1.52
2018-01-20T02:48:44.583Z,2.35
2018-01-20T02:51:12.154Z,1.58
2018-01-20T02:53:39.720Z,1.45
2018-01-20T02:56:08.275Z,1.58
2018-01-20T02:58:35.821Z,1.45
2018-01-20T03:01:03.385Z,1.50
2018-01-20T03:03:30.960Z,1.60
2018-01-20T03:05:58.518Z,1.60
2018-01-20T03:08:26.126Z,1.55
2018-01-20T03:10:53.680Z,1.50
2018-01-20T03:13:21.267Z,1.30
2018-01-20T03:15:48.846Z,1.30
2018-01-20T03:18:16.404Z,1.95
2018-01-20T03:20:44.020Z,1.23
2018-01-20T03:23:12.347Z,1.37
2018-01-20T03:25:39.907Z,1.23
2018-01-20T03:28:07.525Z,1.50
2018-01-20T03:30:35.684Z,1.17
2018-01-20T03:33:03.349Z,2.40
2018-01-20T03:35:30.927Z,1.90
2018-01-20T03:37:58.502Z,1.52
2018-01-20T03:40:26.077Z,1.70
2018-01-20T03:42:53.637Z,1.50
2018-01-20T03:45:21.247Z,2.45
2018-01-20T03:47:48.809Z,1.40
2018-01-20T03:50:16.373Z,2.40
2018-01-20T03:52:43.942Z,1.50
2018-01-20T03:55:11.529Z,2.08
2018-01-20T03:57:39.092Z,2.12
2018-01-20T04:00:06.652Z,2.50
2018-01-20T04:02:35.080Z,2.58
2018-01-20T04:05:02.657Z,3.47
2018-01-20T04:07:30.232Z,3.40
2018-01-20T04:09:57.884Z,5.95
2018-01-20T04:12:25.436Z,3.83
2018-01-20T04:14:53.787Z,3.40
2018-01-20T04:17:22.120Z,2.08
2018-01-20T04:19:49.917Z,2.35
2018-01-20T04:22:17.472Z,2.33
2018-01-20T04:24:45.070Z,1.98
2018-01-20T04:27:12.696Z,1.87
2018-01-20T04:29:40.252Z,1.70
2018-01-20T04:32:08.584Z,1.70
2018-01-20T04:34:36.152Z,1.50
2018-01-20T04:37:03.722Z,1.50
2018-01-20T04:39:31.292Z,1.65
2018-01-20T04:41:58.871Z,1.37
2018-01-20T04:44:26.458Z,1.50
2018-01-20T04:46:54.053Z,1.83
2018-01-20T04:49:21.623Z,1.60
2018-01-20T04:51:49.175Z,1.83
2018-01-20T04:54:16.734Z,1.60
2018-01-20T04:56:44.516Z,1.98
2018-01-20T04:59:12.083Z,1.77
2018-01-20T05:01:39.640Z,1.35
2018-01-20T05:04:08.208Z,1.60
2018-01-20T05:06:36.528Z,1.40
2018-01-20T05:09:04.101Z,1.58
2018-01-20T05:11:31.660Z,0.90
2018-01-20T05:13:59.216Z,1.20
2018-01-20T05:16:27.585Z,0.90
2018-01-20T05:18:55.903Z,1.37
2018-01-20T05:21:23.589Z,1.25
2018-01-20T05:23:51.255Z,1.25
2018-01-20T05:26:18.865Z,1.33
2018-01-20T05:28:46.416Z,1.10
2018-01-20T05:31:13.998Z,1.37
2018-01-20T05:33:41.573Z,1.30
2018-01-20T05:36:09.138Z,2.08
2018-01-20T05:38:36.732Z,2.20
2018-01-20T05:41:04.302Z,1.48
2018-01-20T05:43:31.895Z,2.17
2018-01-20T05:45:59.482Z,1.60
2018-01-20T05:48:28.389Z,1.40
2018-01-20T05:50:56.732Z,1.67
2018-01-20T05:53:24.428Z,2.47
2018-01-20T05:55:51.992Z,1.55
2018-01-20T05:58:19.589Z,1.50
2018-01-20T06:00:47.929Z,1.60
2018-01-20T06:03:15.516Z,1.90
2018-01-20T06:05:43.099Z,1.30
2018-01-20T06:08:10.711Z,1.37
2018-01-20T06:10:38.288Z,2.20
2018-01-20T06:13:05.940Z,1.50
2018-01-20T06:15:33.604Z,1.85
2018-01-20T06:18:01.217Z,1.62
2018-01-20T06:20:28.980Z,1.90
2018-01-20T06:22:56.612Z,2.53
2018-01-20T06:25:24.183Z,2.28
2018-01-20T06:27:52.562Z,2.20
2018-01-20T06:30:20.917Z,2.00
2018-01-20T06:32:48.492Z,1.90
2018-01-20T06:35:16.058Z,1.98
2018-01-20T06:37:43.632Z,2.10
2018-01-20T06:40:11.988Z,2.60
2018-01-20T06:42:39.578Z,2.40
2018-01-20T06:45:07.912Z,1.90
2018-01-20T06:47:35.488Z,2.20
2018-01-20T06:50:03.048Z,1.77
2018-01-20T06:52:30.625Z,2.17
2018-01-20T06:54:58.184Z,2.15
2018-01-20T06:57:25.788Z,1.60
2018-01-20T06:59:53.454Z,1.60
2018-01-20T07:02:21.032Z,2.42
2018-01-20T07:04:49.489Z,2.60
2018-01-20T07:07:17.071Z,1.83
2018-01-20T07:09:44.644Z,1.98
2018-01-20T07:12:12.208Z,2.03
2018-01-20T07:14:39.791Z,1.60
2018-01-20T07:17:07.357Z,1.30
2018-01-20T07:19:34.931Z,1.23
2018-01-20T07:22:02.557Z,2.28
2018-01-20T07:24:30.876Z,15.85
2018-01-20T07:26:58.443Z,3.20
2018-01-20T07:29:26.008Z,3.00
2018-01-20T07:31:54.345Z,2.83
2018-01-20T07:34:21.926Z,3.00
2018-01-20T07:36:50.016Z,2.95
2018-01-20T07:39:17.602Z,2.10
2018-01-20T07:41:46.161Z,2.58
2018-01-20T07:44:14.031Z,2.10
2018-01-20T07:46:42.821Z,2.28
2018-01-20T07:49:10.397Z,2.37
2018-01-20T07:51:38.847Z,1.92
2018-01-20T07:54:07.226Z,2.40
2018-01-20T07:56:34.856Z,2.17
2018-01-20T07:59:02.763Z,2.00
2018-01-20T08:01:30.376Z,2.33
2018-01-20T08:03:58.707Z,1.77
2018-01-20T08:06:26.284Z,1.90
2018-01-20T08:08:53.866Z,2.15
2018-01-20T08:11:21.432Z,1.75
2018-01-20T08:13:48.982Z,1.80
2018-01-20T08:16:16.557Z,1.60
2018-01-20T08:18:44.119Z,1.50
2018-01-20T08:21:11.773Z,1.60
2018-01-20T08:23:40.114Z,3.22
2018-01-20T08:26:07.671Z,4.03
2018-01-20T08:28:35.261Z,1.92
2018-01-20T08:31:02.830Z,2.00
2018-01-20T08:33:30.424Z,2.20
2018-01-20T08:35:58.054Z,2.50
2018-01-20T08:38:25.669Z,1.87
2018-01-20T08:40:53.399Z,2.05
2018-01-20T08:43:21.070Z,1.67
2018-01-20T08:45:48.681Z,2.25
2018-01-20T08:48:16.259Z,1.83
2018-01-20T08:50:43.850Z,2.08
2018-01-20T08:53:12.201Z,4.35
2018-01-20T08:55:39.815Z,2.50
2018-01-20T08:58:07.394Z,1.70
2018-01-20T09:00:35.788Z,2.78
2018-01-20T09:03:05.326Z,1.98
2018-01-20T09:05:32.896Z,1.37
2018-01-20T09:08:00.518Z,1.50
2018-01-20T09:10:29.019Z,1.73
2018-01-20T09:12:56.602Z,1.67
2018-01-20T09:15:24.153Z,1.65
2018-01-20T09:17:51.728Z,2.00
2018-01-20T09:20:19.290Z,1.90
2018-01-20T09:22:46.994Z,1.60
2018-01-20T09:25:14.552Z,2.12
2018-01-20T09:27:42.106Z,1.75
2018-01-20T09:30:09.728Z,1.35
2018-01-20T09:32:38.056Z,1.62
2018-01-20T09:35:06.396Z,1.90
2018-01-20T09:37:34.723Z,2.30
2018-01-20T09:40:02.333Z,1.90
2018-01-20T09:43:13.396Z,4.10
2018-01-20T09:45:41.732Z,3.90
2018-01-20T09:48:09.288Z,1.70
2018-01-20T09:50:36.958Z,1.85
2018-01-20T09:53:04.540Z,1.62
2018-01-20T09:55:32.110Z,1.50
2018-01-20T09:57:59.681Z,1.95
2018-01-20T10:00:27.525Z,1.55
2018-01-20T10:02:55.972Z,1.73
2018-01-20T10:05:23.541Z,1.77
2018-01-20T10:07:51.109Z,1.30
2018-01-20T10:10:19.011Z,1.48
2018-01-20T10:12:46.606Z,1.33
2018-01-20T10:15:15.132Z,1.60
2018-01-20T10:17:42.712Z,1.80
2018-01-20T10:20:10.593Z,1.52
2018-01-20T10:22:38.204Z,1.52
2018-01-20T10:25:05.883Z,1.25
2018-01-20T10:27:33.484Z,1.67
2018-01-20T10:30:03.941Z,1.60
2018-01-20T10:32:32.984Z,1.90
2018-01-20T10:35:01.587Z,1.30
2018-01-20T10:37:29.654Z,1.25
2018-01-20T10:40:01.969Z,1.45
2018-01-20T10:42:29.985Z,1.60
2018-01-20T10:44:57.708Z,1.67
2018-01-20T10:47:26.605Z,1.85
2018-01-20T10:49:54.437Z,1.70
2018-01-20T10:52:22.334Z,1.83
2018-01-20T10:54:50.208Z,1.70
2018-01-20T10:57:19.288Z,1.58
2018-01-20T10:59:46.994Z,1.75
2018-01-20T11:02:14.747Z,1.92
2018-01-20T11:04:42.743Z,1.55
2018-01-20T11:07:10.508Z,7.20
2018-01-20T11:09:38.361Z,4.85
2018-01-20T11:12:06.922Z,2.40
2018-01-20T11:14:36.012Z,1.95
2018-01-20T11:17:03.661Z,1.75
2018-01-20T11:19:31.502Z,1.80
2018-01-20T11:21:59.133Z,1.50
2018-01-20T11:24:26.806Z,1.48
2018-01-20T11:26:55.284Z,1.73
2018-01-20T11:29:23.008Z,1.90
2018-01-20T11:31:50.568Z,2.30
2018-01-20T11:34:18.177Z,1.67
2018-01-20T11:36:45.753Z,2.20
2018-01-20T11:39:13.308Z,1.40
2018-01-20T11:41:41.117Z,1.60
2018-01-20T11:44:08.754Z,1.50
2018-01-20T11:46:36.422Z,1.70
2018-01-20T11:49:04.000Z,2.55
2018-01-20T11:51:31.560Z,1.98
2018-01-20T11:53:59.127Z,1.37
2018-01-20T11:56:26.680Z,1.30
2018-01-20T11:58:55.040Z,1.40
2018-01-20T12:01:22.600Z,1.27
2018-01-20T12:03:50.168Z,1.75
2018-01-20T12:06:17.740Z,1.30
2018-01-20T12:08:45.291Z,1.05
2018-01-20T12:11:12.864Z,1.35
2018-01-20T12:13:40.468Z,4.82
2018-01-20T12:16:08.057Z,3.00
2018-01-20T12:18:35.636Z,1.58
2018-01-20T12:21:03.231Z,1.30
2018-01-20T12:23:30.792Z,1.12
2018-01-20T12:25:59.366Z,1.50
2018-01-20T12:28:26.950Z,1.52
2018-01-20T12:30:54.534Z,1.60
2018-01-20T12:33:23.126Z,1.17
2018-01-20T12:35:51.453Z,0.95
2018-01-20T12:38:19.048Z,1.60
2018-01-20T12:40:46.640Z,0.90
2018-01-20T12:43:14.201Z,1.25
2018-01-20T12:45:41.834Z,1.25
2018-01-20T12:48:09.393Z,1.08
2018-01-20T12:50:36.982Z,1.00
2018-01-20T12:53:04.538Z,3.40
2018-01-20T12:55:32.262Z,1.12
2018-01-20T12:57:59.930Z,1.20
2018-01-20T13:00:27.499Z,0.95
2018-01-20T13:02:55.050Z,1.30
2018-01-20T13:05:22.685Z,1.60
2018-01-20T13:07:50.319Z,1.42
2018-01-20T13:10:17.880Z,1.55
2018-01-20T13:12:45.445Z,4.60
2018-01-20T13:15:13.010Z,1.08
2018-01-20T13:17:40.586Z,0.90
2018-01-20T13:20:08.157Z,1.10
2018-01-20T13:22:35.713Z,1.00
2018-01-20T13:25:03.434Z,1.50
2018-01-20T13:27:31.117Z,6.05
2018-01-20T13:29:58.697Z,2.47
2018-01-20T13:32:26.256Z,2.37
2018-01-20T13:34:53.909Z,2.75
2018-01-20T13:37:21.476Z,3.20
2018-01-20T13:39:49.077Z,5.10
2018-01-20T13:42:16.653Z,7.82
2018-01-20T13:44:44.205Z,1.60
2018-01-20T13:47:11.804Z,7.22
2018-01-20T13:49:39.362Z,6.62
2018-01-20T13:52:07.116Z,10.70
2018-01-20T13:54:34.693Z,7.00
2018-01-20T13:57:02.303Z,4.82
2018-01-20T13:59:29.918Z,12.70
2018-01-20T14:01:57.496Z,11.73
2018-01-20T14:04:25.174Z,24.48
2018-01-20T14:06:52.744Z,9.13
2018-01-20T14:09:20.344Z,16.62
2018-01-20T14:11:47.971Z,5.50
2018-01-20T14:14:15.520Z,5.47
2018-01-20T14:16:43.201Z,3.90
2018-01-20T14:19:11.532Z,3.33
2018-01-20T14:21:39.112Z,3.25
2018-01-20T14:24:06.665Z,3.60
2018-01-20T14:26:34.369Z,3.03
2018-01-20T14:29:02.293Z,3.20
2018-01-20T14:31:29.925Z,3.70
2018-01-20T14:33:57.622Z,3.17
2018-01-20T14:36:25.981Z,3.60
2018-01-20T14:38:53.591Z,2.25
2018-01-20T14:41:21.173Z,3.45
2018-01-20T14:43:49.508Z,2.90
2018-01-20T14:46:17.060Z,2.80
2018-01-20T14:48:44.664Z,3.20
2018-01-20T14:51:12.225Z,3.03
2018-01-20T14:53:39.856Z,2.50
2018-01-20T14:56:08.179Z,2.20
2018-01-20T14:58:35.781Z,2.12
2018-01-20T15:01:03.344Z,1.70
2018-01-20T15:03:31.012Z,2.22
2018-01-20T15:05:58.619Z,2.50
2018-01-20T15:08:26.190Z,2.70
2018-01-20T15:10:53.770Z,2.53
2018-01-20T15:13:21.339Z,2.00
2018-01-20T15:15:50.017Z,2.65
2018-01-20T15:18:17.580Z,3.08
2018-01-20T15:20:45.192Z,2.65
2018-01-20T15:23:12.788Z,2.40
2018-01-20T15:25:40.351Z,2.70
2018-01-20T15:28:08.673Z,3.70
2018-01-20T15:30:36.238Z,3.22
2018-01-20T15:33:03.794Z,3.25
2018-01-20T15:35:31.379Z,2.58
2018-01-20T15:37:58.941Z,2.10
2018-01-20T15:40:26.526Z,3.75
2018-01-20T15:42:54.118Z,3.30
2018-01-20T15:45:21.696Z,2.90
2018-01-20T15:47:49.245Z,2.70
2018-01-20T15:50:17.099Z,2.70
2018-01-20T15:52:44.853Z,2.92
2018-01-20T15:55:12.425Z,2.55
2018-01-20T15:57:40.005Z,2.70
2018-01-20T16:00:07.606Z,3.17
2018-01-20T16:02:35.172Z,2.65
2018-01-20T16:05:02.806Z,3.10
2018-01-20T16:07:30.349Z,3.58
2018-01-20T16:09:57.904Z,3.45
2018-01-20T16:12:25.498Z,2.87
2018-01-20T16:14:53.050Z,2.75
2018-01-20T16:17:20.645Z,5.78
2018-01-20T16:19:48.424Z,5.03
2018-01-20T16:22:16.176Z,10.18
2018-01-20T16:24:43.828Z,8.40
2018-01-20T16:27:11.391Z,9.00
2018-01-20T16:29:39.722Z,3.80
2018-01-20T16:32:07.313Z,3.08
2018-01-20T16:34:34.877Z,6.93
2018-01-20T16:37:02.518Z,3.78
2018-01-20T16:39:30.082Z,3.22
2018-01-20T16:41:57.660Z,2.72
2018-01-20T16:44:25.223Z,3.08
2018-01-20T16:46:52.835Z,4.40
2018-01-20T16:49:20.633Z,4.20
2018-01-20T16:51:48.197Z,3.37
2018-01-20T16:54:15.758Z,2.28
2018-01-20T16:56:43.333Z,2.50
2018-01-20T16:59:10.893Z,3.00
2018-01-20T17:01:38.504Z,2.53
2018-01-20T17:04:06.076Z,2.70
2018-01-20T17:06:33.629Z,3.10
2018-01-20T17:09:01.213Z,3.30
2018-01-20T17:11:28.772Z,3.25
2018-01-20T17:13:56.340Z,3.60
2018-01-20T17:16:23.912Z,3.42
2018-01-20T17:18:51.688Z,3.35
2018-01-20T17:21:19.254Z,3.70
2018-01-20T17:23:46.821Z,2.87
2018-01-20T17:26:14.407Z,3.12
2018-01-20T17:28:41.970Z,2.50
2018-01-20T17:31:09.525Z,3.85
2018-01-20T17:33:37.180Z,3.80
2018-01-20T17:36:04.749Z,3.58
2018-01-20T17:38:32.363Z,4.00
2018-01-20T17:40:59.957Z,3.80
2018-01-20T17:43:27.620Z,3.85
2018-01-20T17:45:55.250Z,3.90
2018-01-20T17:48:22.920Z,3.25
2018-01-20T17:50:50.493Z,2.87
2018-01-20T17:53:18.079Z,2.90
2018-01-20T17:55:45.643Z,3.50
2018-01-20T17:58:13.195Z,3.80
2018-01-20T18:00:40.753Z,4.10
2018-01-20T18:03:09.106Z,3.90
2018-01-20T18:05:36.656Z,3.10
2018-01-20T18:08:04.266Z,3.15
2018-01-20T18:10:31.850Z,3.28
2018-01-20T18:12:59.410Z,3.33
2018-01-20T18:15:26.998Z,4.10
2018-01-20T18:17:54.552Z,4.65
2018-01-20T18:20:22.095Z,2.90
2018-01-20T18:22:49.668Z,3.83
2018-01-20T18:25:17.240Z,4.78
2018-01-20T18:27:44.810Z,4.60
2018-01-20T18:30:12.374Z,4.22
2018-01-20T18:32:39.934Z,6.10
2018-01-20T18:35:07.509Z,4.82
2018-01-20T18:37:35.194Z,5.03
2018-01-20T18:40:02.769Z,5.75
2018-01-20T18:42:30.334Z,6.55
2018-01-20T18:44:57.909Z,5.43
2018-01-20T18:47:25.481Z,6.40
2018-01-20T18:49:53.054Z,5.05
2018-01-20T18:52:20.644Z,4.87
2018-01-20T18:54:48.203Z,5.65
2018-01-20T18:57:15.784Z,4.28
2018-01-20T18:59:43.384Z,4.68
2018-01-20T19:02:11.737Z,4.40
2018-01-20T19:04:39.339Z,5.50
2018-01-20T19:07:06.921Z,5.97
2018-01-20T19:09:34.480Z,6.15
2018-01-20T19:12:02.057Z,5.78
2018-01-20T19:14:29.651Z,5.50
2018-01-20T19:16:57.972Z,6.15
2018-01-20T19:19:26.387Z,7.12
2018-01-20T19:21:53.946Z,6.47
2018-01-20T19:24:21.523Z,6.68
2018-01-20T19:26:49.116Z,7.40
2018-01-20T19:29:16.672Z,7.15
2018-01-20T19:31:44.240Z,7.00
2018-01-20T19:34:11.789Z,7.20
2018-01-20T19:36:40.152Z,7.87
2018-01-20T19:39:08.503Z,6.90
2018-01-20T19:41:36.057Z,7.03
2018-01-20T19:44:03.616Z,7.12
2018-01-20T19:46:31.175Z,7.68
2018-01-20T19:48:59.508Z,7.68
2018-01-20T19:51:27.104Z,6.55
2018-01-20T19:53:55.776Z,7.47
2018-01-20T19:56:23.379Z,7.93
2018-01-20T19:58:51.291Z,7.30
2018-01-20T20:01:18.877Z,7.20
2018-01-20T20:03:46.516Z,7.47
2018-01-20T20:06:14.162Z,7.40
2018-01-20T20:08:41.744Z,8.13
2018-01-20T20:11:09.328Z,8.07
2018-01-20T20:13:36.913Z,8.20
2018-01-20T20:16:04.528Z,7.62
2018-01-20T20:18:32.089Z,8.82
2018-01-20T20:20:59.933Z,8.48
2018-01-20T20:23:27.524Z,8.82
2018-01-20T20:25:55.892Z,10.15
2018-01-20T20:28:23.547Z,8.93
2018-01-20T20:30:51.098Z,8.88
2018-01-20T20:33:18.649Z,9.55
2018-01-20T20:35:47.299Z,8.80
2018-01-20T20:38:14.857Z,8.35
2018-01-20T20:40:42.425Z,8.60
2018-01-20T20:43:10.179Z,7.82
2018-01-20T20:45:37.737Z,8.75
2018-01-20T20:48:06.146Z,8.20
2018-01-20T20:50:33.849Z,8.07
2018-01-20T20:53:01.436Z,9.13
2018-01-20T20:55:29.101Z,7.65
2018-01-20T20:57:56.674Z,8.55
2018-01-20T21:00:24.230Z,8.40
2018-01-20T21:02:51.809Z,8.07
2018-01-20T21:05:19.400Z,7.90
2018-01-20T21:07:47.060Z,8.70
2018-01-20T21:10:14.645Z,9.35
2018-01-20T21:12:42.217Z,8.10
2018-01-20T21:15:11.051Z,8.23
2018-01-20T21:17:39.392Z,9.40
2018-01-20T21:20:07.053Z,7.55
2018-01-20T21:22:35.745Z,9.40
2018-01-20T21:25:03.331Z,8.70
2018-01-20T21:27:30.911Z,8.82
2018-01-20T21:29:58.506Z,9.10
2018-01-20T21:32:27.310Z,9.80
2018-01-20T21:34:54.918Z,9.43
2018-01-20T21:37:23.251Z,8.90
2018-01-20T21:39:50.842Z,9.98
2018-01-20T21:42:18.472Z,8.23
2018-01-20T21:44:46.093Z,8.57
2018-01-20T21:47:13.665Z,7.60
2018-01-20T21:49:41.236Z,10.10
2018-01-20T21:52:09.809Z,8.57
2018-01-20T21:54:37.419Z,8.70
2018-01-20T21:57:05.765Z,8.93
2018-01-20T21:59:33.378Z,9.10
2018-01-20T22:02:00.972Z,9.82
2018-01-20T22:04:28.538Z,9.15
2018-01-20T22:06:56.118Z,9.80
2018-01-20T22:09:24.499Z,9.52
2018-01-20T22:11:52.909Z,9.70
2018-01-20T22:14:20.473Z,8.95
2018-01-20T22:16:49.090Z,9.07
2018-01-20T22:19:16.688Z,9.02
2018-01-20T22:21:44.248Z,9.88
2018-01-20T22:24:11.809Z,10.77
2018-01-20T22:26:39.389Z,10.35
2018-01-20T22:29:06.972Z,9.68
2018-01-20T22:31:34.798Z,11.10
2018-01-20T22:34:03.216Z,11.10
2018-01-20T22:36:30.853Z,11.27
2018-01-20T22:38:58.460Z,11.35
2018-01-20T22:41:26.091Z,11.40
2018-01-20T22:43:53.689Z,10.82
2018-01-20T22:46:21.265Z,12.85
2018-01-20T22:48:48.840Z,11.65
2018-01-20T22:51:16.530Z,12.13
2018-01-20T22:53:44.097Z,10.57
2018-01-20T22:56:11.677Z,8.85
2018-01-20T22:58:39.260Z,10.23
2018-01-20T23:01:14.849Z,11.10
2018-01-20T23:03:42.412Z,9.68
2018-01-20T23:06:09.990Z,9.80
2018-01-20T23:08:37.556Z,10.30
2018-01-20T23:11:05.116Z,10.57
2018-01-20T23:13:32.680Z,9.88
2018-01-20T23:16:00.351Z,10.73
2018-01-20T23:18:27.964Z,10.05
2018-01-20T23:20:55.588Z,10.15
2018-01-20T23:23:23.196Z,12.23
2018-01-20T23:25:50.764Z,10.85
2018-01-20T23:28:18.329Z,10.68
2018-01-20T23:30:47.230Z,10.38
2018-01-20T23:33:14.810Z,10.65
2018-01-20T23:35:42.679Z,9.18
2018-01-20T23:38:10.240Z,9.40
2018-01-20T23:40:37.798Z,7.90
2018-01-20T23:43:05.476Z,8.05
2018-01-20T23:45:33.036Z,8.68
2018-01-20T23:48:00.674Z,6.93
2018-01-20T23:50:29.029Z,7.53
2018-01-20T23:52:56.597Z,6.45
2018-01-20T23:55:24.191Z,6.60
2018-01-20T23:57:51.746Z,7.80
